Time;durP1;ratioP1;P1;durP2;ratioP2;P2;SDS_P1;SDS_P2;PMS_P1;PMS_P2;Temp;Humidity;BMP_temperature;BMP_pressure;BME280_temperature;BME280_humidity;BME280_pressure;Samples;Min_cycle;Max_cycle;Signal;HPM_P1;HPM_P2
2022/12/12 00:00:45;;;;;;;10.23;7.07;;;;;;;1.07;67.88;101167.34;6205712;28;20233;-72
2022/12/12 00:04:07;;;;;;;17.47;8.23;;;;;;;1.13;68.66;101175.88;6224769;28;20224;-72
2022/12/12 00:07:28;;;;;;;11.80;6.57;;;;;;;1.09;68.07;101182.25;6229196;28;20311;-73
2022/12/12 00:10:49;;;;;;;14.00;8.87;;;;;;;0.99;67.87;101169.47;6211446;28;20236;-73
2022/12/12 00:14:11;;;;;;;12.43;8.77;;;;;;;0.99;68.46;101172.13;6226171;28;20224;-73
2022/12/12 00:17:32;;;;;;;12.63;8.67;;;;;;;1.03;68.19;101169.28;6226029;28;20232;-73
2022/12/12 00:20:56;;;;;;;14.87;7.90;;;;;;;1.00;68.75;101166.75;6213796;28;20232;-73
2022/12/12 00:24:16;;;;;;;13.10;9.07;;;;;;;1.10;68.26;101165.41;6227136;28;20513;-73
2022/12/12 00:27:37;;;;;;;15.80;9.37;;;;;;;1.17;67.85;101172.16;6227578;28;20232;-72
2022/12/12 00:31:00;;;;;;;10.00;7.30;;;;;;;1.13;67.74;101165.25;6209519;28;20224;-73
2022/12/12 00:34:21;;;;;;;13.47;8.40;;;;;;;1.18;68.65;101163.28;6231838;28;20315;-72
2022/12/12 00:37:42;;;;;;;11.73;8.77;;;;;;;1.12;68.25;101165.34;6226988;28;20240;-72
2022/12/12 00:41:04;;;;;;;10.07;7.73;;;;;;;1.10;68.46;101157.47;6195258;28;20229;-70
2022/12/12 00:44:25;;;;;;;11.47;7.03;;;;;;;1.08;68.43;101156.66;6223812;28;20225;-72
2022/12/12 00:47:48;;;;;;;13.80;10.23;;;;;;;1.07;68.81;101165.53;6224630;28;20248;-72
2022/12/12 00:51:10;;;;;;;11.97;8.03;;;;;;;1.01;68.81;101173.78;6222745;28;20248;-72
2022/12/12 00:54:32;;;;;;;13.30;8.87;;;;;;;0.99;68.83;101169.47;6201961;28;20229;-73
2022/12/12 00:57:53;;;;;;;12.27;10.37;;;;;;;0.90;69.44;101175.22;6230320;28;20681;-72
2022/12/12 01:01:18;;;;;;;14.03;8.90;;;;;;;0.83;69.67;101172.81;6217778;28;20363;-72
2022/12/12 01:04:40;;;;;;;9.80;6.77;;;;;;;0.65;69.94;101175.41;6227597;28;22488;-73
2022/12/12 01:08:01;;;;;;;12.43;7.80;;;;;;;0.55;70.03;101174.94;6225162;28;20239;-72
2022/12/12 01:11:22;;;;;;;8.47;6.63;;;;;;;0.53;70.75;101181.25;6206237;28;20221;-72
2022/12/12 01:14:43;;;;;;;12.50;8.13;;;;;;;0.49;70.74;101180.50;6228110;28;20233;-72
2022/12/12 01:18:04;;;;;;;12.20;8.03;;;;;;;0.46;71.07;101185.09;6218651;28;22606;-72
2022/12/12 01:21:27;;;;;;;11.13;8.23;;;;;;;0.44;70.61;101185.13;6220064;28;20236;-72
2022/12/12 01:24:48;;;;;;;9.90;7.97;;;;;;;0.41;70.87;101192.38;6197813;28;20224;-72
2022/12/12 01:28:09;;;;;;;19.60;11.00;;;;;;;0.34;70.97;101182.94;6211673;28;20236;-72
2022/12/12 01:31:30;;;;;;;12.57;9.70;;;;;;;0.35;71.23;101182.03;6188841;28;20233;-73
2022/12/12 01:34:51;;;;;;;14.93;9.43;;;;;;;0.32;70.98;101179.50;6218787;28;20232;-72
2022/12/12 01:38:13;;;;;;;10.97;8.63;;;;;;;0.27;71.46;101184.97;6219731;28;20862;-72
2022/12/12 01:41:34;;;;;;;15.77;8.63;;;;;;;0.23;71.21;101190.50;6213601;28;20256;-73
2022/12/12 01:44:56;;;;;;;10.60;9.07;;;;;;;0.22;71.93;101194.94;6213107;28;20240;-72
2022/12/12 01:48:18;;;;;;;14.63;8.10;;;;;;;0.18;71.72;101193.34;6218263;28;20746;-72
2022/12/12 01:51:40;;;;;;;10.77;6.67;;;;;;;0.16;71.85;101189.00;6205992;28;20224;-71
2022/12/12 01:55:07;;;;;;;13.77;9.23;;;;;;;0.17;71.71;101188.09;6193777;28;20232;-72
2022/12/12 01:58:30;;;;;;;12.23;6.43;;;;;;;0.15;71.53;101189.97;6222083;28;20235;-72
2022/12/12 02:01:51;;;;;;;9.67;7.53;;;;;;;0.13;71.47;101187.34;6194975;28;20232;-73
2022/12/12 02:05:23;;;;;;;12.83;8.70;;;;;;;0.12;71.62;101190.06;6204689;28;20236;-72
2022/12/12 02:08:45;;;;;;;15.23;9.83;;;;;;;0.05;72.04;101186.81;6225834;28;20513;-72
2022/12/12 02:12:12;;;;;;;15.23;9.50;;;;;;;-0.01;72.14;101184.41;6211280;28;20606;-73
2022/12/12 02:15:42;;;;;;;12.47;8.97;;;;;;;-0.06;72.34;101187.22;6203584;28;20267;-72
2022/12/12 02:19:15;;;;;;;14.03;9.93;;;;;;;-0.07;72.48;101182.00;6210547;28;20244;-72
2022/12/12 02:22:58;;;;;;;13.03;7.70;;;;;;;-0.10;72.68;101182.13;6224080;28;20758;-73
2022/12/12 02:26:48;;;;;;;13.27;9.40;;;;;;;-0.18;72.47;101190.38;6211601;28;20232;-72
2022/12/12 02:30:16;;;;;;;12.80;8.37;;;;;;;-0.25;72.41;101191.53;6199332;28;20725;-73
2022/12/12 02:33:42;;;;;;;14.97;8.43;;;;;;;-0.33;72.71;101180.38;6226828;28;20240;-72
2022/12/12 02:37:12;;;;;;;16.40;9.80;;;;;;;-0.35;73.40;101190.19;6227311;28;20224;-72
2022/12/12 02:40:39;;;;;;;14.27;7.60;;;;;;;-0.36;74.18;101183.19;6210166;28;20540;-72
2022/12/12 02:44:11;;;;;;;13.67;8.63;;;;;;;-0.37;74.42;101184.06;6201990;28;20221;-72
2022/12/12 02:47:35;;;;;;;14.47;9.63;;;;;;;-0.38;73.98;101182.38;6219162;28;20232;-72
2022/12/12 02:51:02;;;;;;;13.57;6.87;;;;;;;-0.42;73.95;101185.19;6216369;28;20220;-70
2022/12/12 02:54:23;;;;;;;15.60;10.10;;;;;;;-0.50;74.24;101188.13;6219865;28;20642;-72
2022/12/12 02:57:45;;;;;;;12.97;9.60;;;;;;;-0.44;74.61;101182.59;6212704;28;20229;-73
2022/12/12 03:01:20;;;;;;;13.57;8.20;;;;;;;-0.48;74.50;101188.09;6209580;28;20341;-73
2022/12/12 03:08:47;;;;;;;17.07;9.13;;;;;;;-0.52;74.40;101187.31;6222599;28;20232;-72
2022/12/12 03:12:13;;;;;;;15.80;9.50;;;;;;;-0.49;74.99;101192.50;6221736;28;20272;-71
2022/12/12 03:15:43;;;;;;;15.53;9.20;;;;;;;-0.43;74.43;101188.75;6204013;28;20719;-72
2022/12/12 03:19:12;;;;;;;13.43;9.13;;;;;;;-0.36;74.69;101191.13;6210577;28;20240;-72
2022/12/12 03:22:42;;;;;;;16.10;9.13;;;;;;;-0.41;74.66;101195.72;6220403;28;20772;-73
2022/12/12 03:26:10;;;;;;;15.70;10.00;;;;;;;-0.51;74.62;101185.53;6205276;28;20751;-73
2022/12/12 03:29:35;;;;;;;11.23;7.10;;;;;;;-0.58;74.77;101194.63;6214932;28;20248;-72
2022/12/12 03:33:00;;;;;;;12.13;8.70;;;;;;;-0.65;75.07;101182.56;6205368;28;20229;-72
2022/12/12 03:36:25;;;;;;;11.87;8.07;;;;;;;-0.65;76.15;101187.84;6212955;28;20236;-71
2022/12/12 03:39:52;;;;;;;13.77;8.10;;;;;;;-0.69;75.58;101181.81;6212385;28;20697;-70
2022/12/12 03:43:18;;;;;;;13.23;9.33;;;;;;;-0.78;76.02;101191.88;6222019;28;20811;-72
2022/12/12 03:46:43;;;;;;;12.13;10.47;;;;;;;-0.82;76.15;101186.72;6202747;28;20251;-71
2022/12/12 03:50:10;;;;;;;9.97;7.87;;;;;;;-0.75;76.67;101197.06;6212784;28;20704;-72
2022/12/12 03:53:36;;;;;;;14.67;7.43;;;;;;;-0.60;76.54;101199.97;6225795;28;20240;-71
2022/12/12 03:57:01;;;;;;;15.57;8.67;;;;;;;-0.57;75.88;101197.22;6211248;28;20233;-72
2022/12/12 04:00:23;;;;;;;19.97;9.37;;;;;;;-0.48;76.58;101194.22;6208783;28;20240;-71
2022/12/12 04:03:51;;;;;;;18.07;12.47;;;;;;;-0.42;76.58;101198.44;6221302;28;20239;-71
2022/12/12 04:07:17;;;;;;;16.23;9.87;;;;;;;-0.47;76.46;101209.19;6221480;28;20236;-72
2022/12/12 04:14:42;;;;;;;16.23;10.00;;;;;;;-0.54;76.73;101212.16;6212769;28;20240;-72
2022/12/12 04:18:14;;;;;;;17.43;10.90;;;;;;;-0.59;76.24;101214.09;6217200;28;20242;-72
2022/12/12 04:25:30;;;;;;;14.47;9.93;;;;;;;-0.61;76.50;101211.50;6217341;28;20371;-72
2022/12/12 04:29:01;;;;;;;17.03;10.63;;;;;;;-0.60;76.63;101221.16;6229191;28;20223;-71
2022/12/12 04:32:28;;;;;;;15.07;10.73;;;;;;;-0.69;76.48;101228.59;6224787;28;20223;-72
2022/12/12 04:35:52;;;;;;;17.07;10.80;;;;;;;-0.72;76.56;101229.56;6217557;28;20598;-72
2022/12/12 04:39:16;;;;;;;10.37;8.80;;;;;;;-0.71;76.85;101222.50;6215401;28;20240;-72
2022/12/12 04:42:44;;;;;;;15.77;10.43;;;;;;;-0.75;76.65;101234.13;6223121;28;20315;-71
2022/12/12 04:46:08;;;;;;;17.60;10.40;;;;;;;-0.75;76.88;101228.81;6209779;28;20228;-72
2022/12/12 04:49:33;;;;;;;17.17;10.20;;;;;;;-0.81;77.19;101238.69;6222690;28;20229;-72
2022/12/12 04:52:58;;;;;;;18.83;10.23;;;;;;;-0.85;77.54;101237.09;6225852;28;20224;-73
2022/12/12 04:56:26;;;;;;;11.50;8.67;;;;;;;-0.84;77.87;101235.31;6213066;28;20668;-72
2022/12/12 04:59:48;;;;;;;25.47;17.53;;;;;;;-0.88;77.88;101239.00;6220026;28;20590;-71
2022/12/12 05:03:15;;;;;;;34.77;21.03;;;;;;;-0.89;78.11;101239.91;6225664;28;20224;-72
2022/12/12 05:06:42;;;;;;;36.43;25.13;;;;;;;-0.81;78.03;101237.81;6212776;28;20245;-71
2022/12/12 05:10:08;;;;;;;36.63;15.27;;;;;;;-0.93;78.19;101238.28;6215904;28;20225;-73
2022/12/12 05:13:31;;;;;;;18.47;10.63;;;;;;;-1.05;79.26;101239.59;6225586;28;20704;-72
2022/12/12 05:16:54;;;;;;;21.27;9.90;;;;;;;-0.95;78.07;101229.53;6213565;28;20653;-73
2022/12/12 05:20:16;;;;;;;22.70;11.03;;;;;;;-0.96;78.16;101233.13;6205171;28;20244;-73
2022/12/12 05:23:37;;;;;;;20.80;10.50;;;;;;;-0.97;77.99;101239.31;6221995;28;20815;-73
2022/12/12 05:27:00;;;;;;;19.63;10.13;;;;;;;-0.98;78.38;101237.59;6192689;28;22286;-74
2022/12/12 05:30:21;;;;;;;13.60;10.10;;;;;;;-1.03;78.41;101235.13;6210828;28;20622;-74
2022/12/12 05:33:42;;;;;;;11.73;8.60;;;;;;;-1.08;78.83;101239.69;6227204;28;20220;-73
2022/12/12 05:37:04;;;;;;;20.87;11.03;;;;;;;-1.08;78.89;101239.69;6216335;28;20224;-72
2022/12/12 05:40:25;;;;;;;15.53;9.83;;;;;;;-1.03;78.42;101240.41;6208121;28;20648;-73
2022/12/12 05:43:47;;;;;;;16.10;10.33;;;;;;;-1.06;78.61;101247.56;6225612;28;20334;-73
2022/12/12 05:47:08;;;;;;;33.67;22.10;;;;;;;-1.04;78.26;101243.06;6216924;28;20224;-73
2022/12/12 05:50:28;;;;;;;37.00;24.33;;;;;;;-1.10;78.59;101243.31;6204522;28;21275;-73
2022/12/12 05:53:50;;;;;;;28.77;16.43;;;;;;;-1.07;78.73;101243.22;6197723;28;20221;-73
2022/12/12 05:57:10;;;;;;;26.10;12.17;;;;;;;-1.15;78.42;101250.56;6224740;28;20841;-74
2022/12/12 06:00:33;;;;;;;13.93;9.43;;;;;;;-1.18;78.61;101248.88;6202434;28;20236;-73
2022/12/12 06:03:54;;;;;;;18.90;10.40;;;;;;;-1.14;79.08;101255.78;6221873;28;20220;-73
2022/12/12 06:07:15;;;;;;;15.57;10.23;;;;;;;-1.08;78.39;101254.69;6222685;28;20232;-72
2022/12/12 06:10:36;;;;;;;17.53;10.50;;;;;;;-1.06;77.78;101250.22;6204594;28;20621;-73
2022/12/12 06:13:57;;;;;;;14.83;10.00;;;;;;;-1.14;78.43;101252.25;6224956;28;20241;-72
2022/12/12 06:17:19;;;;;;;11.83;9.37;;;;;;;-1.04;78.15;101259.81;6218567;28;20232;-73
2022/12/12 06:20:40;;;;;;;15.50;10.70;;;;;;;-0.95;77.97;101250.69;6203716;28;20886;-73
2022/12/12 06:24:00;;;;;;;21.47;12.30;;;;;;;-0.91;77.87;101254.97;6208887;28;20651;-73
2022/12/12 06:27:21;;;;;;;22.53;12.87;;;;;;;-0.97;78.60;101255.19;6220109;28;20256;-72
2022/12/12 06:30:42;;;;;;;16.97;9.73;;;;;;;-0.87;78.23;101262.75;6199783;28;20229;-73
2022/12/12 06:34:05;;;;;;;13.63;9.90;;;;;;;-0.77;77.94;101271.19;6212228;28;20224;-72
2022/12/12 06:37:25;;;;;;;15.40;10.43;;;;;;;-0.75;78.22;101266.72;6221583;28;20721;-73
2022/12/12 06:40:46;;;;;;;14.63;10.43;;;;;;;-0.66;78.07;101266.38;6207284;28;20240;-71
2022/12/12 06:44:07;;;;;;;17.47;9.47;;;;;;;-0.57;78.01;101268.72;6205598;28;20260;-69
2022/12/12 06:47:28;;;;;;;16.07;10.70;;;;;;;-0.47;77.66;101272.72;6203304;28;20240;-69
2022/12/12 06:50:50;;;;;;;17.63;11.73;;;;;;;-0.42;77.50;101273.44;6205541;28;20236;-72
2022/12/12 06:54:13;;;;;;;24.80;12.40;;;;;;;-0.35;77.38;101282.00;6209627;28;20507;-70
2022/12/12 06:57:34;;;;;;;18.97;10.30;;;;;;;-0.36;77.15;101275.84;6220314;28;20626;-70
2022/12/12 07:00:55;;;;;;;14.70;9.97;;;;;;;-0.31;77.23;101279.16;6204628;28;20237;-72
2022/12/12 07:04:16;;;;;;;13.40;8.63;;;;;;;-0.35;77.58;101279.34;6205382;28;22449;-71
2022/12/12 07:07:38;;;;;;;16.77;9.73;;;;;;;-0.35;78.49;101277.56;6204783;28;20320;-71
2022/12/12 07:11:03;;;;;;;16.80;11.17;;;;;;;-0.28;77.70;101276.41;6206323;28;20232;-71
2022/12/12 07:14:24;;;;;;;14.50;9.83;;;;;;;-0.31;77.59;101284.47;6209721;28;20319;-72
2022/12/12 07:17:44;;;;;;;16.10;9.83;;;;;;;-0.31;77.76;101280.94;6209962;28;21642;-70
2022/12/12 07:21:07;;;;;;;21.23;12.23;;;;;;;-0.17;78.13;101283.97;6205160;28;20256;-71
2022/12/12 07:24:29;;;;;;;19.07;11.90;;;;;;;-0.14;77.30;101282.03;6208711;28;20248;-74
2022/12/12 07:27:50;;;;;;;13.73;8.87;;;;;;;-0.12;77.80;101289.94;6209841;28;20337;-72
2022/12/12 07:31:13;;;;;;;18.17;9.67;;;;;;;-0.11;77.39;101286.38;6196393;28;20236;-70
2022/12/12 07:34:34;;;;;;;18.17;10.87;;;;;;;-0.25;77.08;101292.19;6213234;28;20228;-72
2022/12/12 07:37:56;;;;;;;20.03;13.10;;;;;;;-0.33;77.28;101290.75;6225144;28;20236;-71
2022/12/12 07:41:19;;;;;;;15.53;10.27;;;;;;;-0.33;77.24;101293.38;6215211;28;20641;-73
2022/12/12 07:44:41;;;;;;;25.47;14.53;;;;;;;-0.09;81.02;101292.47;6200321;28;20614;-71
2022/12/12 07:48:02;;;;;;;16.30;10.70;;;;;;;-0.42;77.46;101291.97;6217023;28;20224;-68
2022/12/12 07:51:23;;;;;;;16.13;10.03;;;;;;;-0.60;77.58;101291.75;6206717;28;20225;-73
2022/12/12 07:54:44;;;;;;;17.47;11.27;;;;;;;-0.56;77.98;101294.25;6218284;28;20216;-74
2022/12/12 07:58:06;;;;;;;37.20;24.33;;;;;;;-0.53;77.82;101304.72;6218297;28;20602;-71
2022/12/12 08:01:28;;;;;;;22.43;15.20;;;;;;;-0.55;77.51;101301.28;6206478;28;20322;-71
2022/12/12 08:04:49;;;;;;;18.77;10.17;;;;;;;-0.61;77.85;101298.84;6205929;28;20233;-71
2022/12/12 08:08:10;;;;;;;10.27;9.00;;;;;;;-0.58;77.38;101287.28;6228376;28;20550;-69
2022/12/12 08:11:32;;;;;;;17.10;10.77;;;;;;;-0.47;77.52;101295.69;6193867;28;20240;-71
2022/12/12 08:14:54;;;;;;;17.07;10.73;;;;;;;-0.43;77.52;101289.34;6213288;28;22130;-70
2022/12/12 08:18:15;;;;;;;17.60;10.30;;;;;;;-0.40;77.17;101294.56;6214213;28;20232;-71
2022/12/12 08:21:35;;;;;;;17.97;10.27;;;;;;;-0.33;76.60;101306.63;6200011;28;20237;-69
2022/12/12 08:24:56;;;;;;;16.33;9.83;;;;;;;-0.24;76.21;101304.50;6210954;28;20256;-70
2022/12/12 08:28:17;;;;;;;17.70;11.57;;;;;;;1.33;71.65;101303.31;6200016;28;20232;-69
2022/12/12 08:31:39;;;;;;;16.23;10.23;;;;;;;3.39;62.95;101296.75;6210060;28;20232;-70
2022/12/12 08:35:00;;;;;;;14.87;10.10;;;;;;;3.69;61.08;101294.28;6220551;28;20604;-70
2022/12/12 08:38:21;;;;;;;18.17;11.03;;;;;;;5.94;55.26;101302.38;6229179;28;20347;-73
2022/12/12 08:41:46;;;;;;;18.23;11.57;;;;;;;6.56;52.39;101304.56;6219404;28;20241;-74
2022/12/12 08:45:08;;;;;;;20.00;10.73;;;;;;;5.67;54.94;101310.28;6214222;28;20320;-74
2022/12/12 08:48:32;;;;;;;13.27;9.83;;;;;;;7.39;51.46;101301.56;6223996;28;20260;-74
2022/12/12 08:51:53;;;;;;;14.77;10.30;;;;;;;7.81;48.79;101301.28;6222869;28;20319;-71
2022/12/12 08:55:14;;;;;;;12.43;9.73;;;;;;;8.43;47.93;101312.91;6214890;28;20670;-73
2022/12/12 08:58:34;;;;;;;17.13;10.20;;;;;;;8.44;46.21;101309.25;6235075;28;20229;-71
2022/12/12 09:01:56;;;;;;;14.50;10.47;;;;;;;8.35;46.01;101317.09;6212596;28;20237;-71
2022/12/12 09:05:18;;;;;;;13.80;8.43;;;;;;;8.44;45.40;101324.50;6222850;28;20237;-70
2022/12/12 09:08:38;;;;;;;13.70;10.43;;;;;;;7.33;48.15;101323.44;6226241;28;20256;-73
2022/12/12 09:11:59;;;;;;;26.67;12.87;;;;;;;8.00;47.52;101325.84;6217043;28;20232;-72
2022/12/12 09:15:21;;;;;;;14.57;9.23;;;;;;;9.77;43.39;101333.16;6215098;28;20228;-71
2022/12/12 09:18:42;;;;;;;16.40;10.17;;;;;;;10.07;42.64;101331.63;6234752;28;20307;-72
2022/12/12 09:22:05;;;;;;;14.53;10.30;;;;;;;9.64;43.07;101330.56;6225432;28;20228;-70
2022/12/12 09:25:26;;;;;;;15.27;9.43;;;;;;;10.61;41.42;101331.72;6221364;28;20228;-71
2022/12/12 09:28:47;;;;;;;20.03;11.63;;;;;;;9.77;42.13;101330.47;6237453;28;20251;-72
2022/12/12 09:32:08;;;;;;;15.67;11.80;;;;;;;9.39;43.02;101331.59;6226418;28;20221;-71
2022/12/12 09:35:29;;;;;;;15.37;11.00;;;;;;;9.91;42.37;101325.69;6223049;28;20606;-71
2022/12/12 09:38:51;;;;;;;16.90;11.37;;;;;;;10.67;41.00;101330.34;6203777;28;20262;-70
2022/12/12 09:42:21;;;;;;;13.87;10.27;;;;;;;10.48;40.76;101324.75;6230061;28;20507;-70
2022/12/12 09:45:43;;;;;;;14.83;8.87;;;;;;;11.32;38.23;101322.16;6221666;28;20228;-71
2022/12/12 09:49:12;;;;;;;16.43;11.40;;;;;;;11.00;39.51;101317.66;6222114;28;20233;-73
2022/12/12 09:52:36;;;;;;;15.90;10.17;;;;;;;11.58;39.49;101310.84;6222492;28;20616;-71
2022/12/12 09:56:07;;;;;;;17.77;10.68;;;;;;;11.21;39.31;101310.44;6206924;28;20232;-71
2022/12/12 09:59:34;;;;;;;22.25;15.98;;;;;;;11.56;37.75;101314.66;6218973;28;20228;-69
2022/12/12 10:03:10;;;;;;;22.40;15.38;;;;;;;13.21;35.48;101316.88;6228111;28;20239;-69
2022/12/12 10:06:40;;;;;;;12.98;9.68;;;;;;;13.90;34.85;101323.81;6220507;28;20240;-73
2022/12/12 10:10:09;;;;;;;14.20;10.25;;;;;;;14.68;32.62;101320.66;6214088;28;20236;-73
2022/12/12 10:13:34;;;;;;;13.52;10.88;;;;;;;13.82;33.94;101312.84;6217790;28;20235;-70
2022/12/12 10:16:58;;;;;;;13.90;8.75;;;;;;;13.56;33.86;101311.72;6206066;28;20229;-70
2022/12/12 10:20:23;;;;;;;12.50;8.63;;;;;;;14.09;33.09;101309.34;6212194;28;20225;-71
2022/12/12 10:23:49;;;;;;;10.50;9.43;;;;;;;13.41;33.47;101305.06;6227845;28;20621;-69
2022/12/12 10:27:12;;;;;;;13.02;9.07;;;;;;;13.92;32.78;101319.09;6232734;28;20545;-70
2022/12/12 10:30:41;;;;;;;14.15;9.77;;;;;;;15.01;31.45;101316.44;6214385;28;20229;-68
2022/12/12 10:34:19;;;;;;;13.40;9.68;;;;;;;15.27;30.54;101314.66;6214902;28;20228;-68
2022/12/12 10:37:50;;;;;;;13.68;10.05;;;;;;;14.94;30.77;101310.78;6228268;28;20495;-70
2022/12/12 10:41:21;;;;;;;12.77;8.98;;;;;;;15.28;31.81;101304.66;6219459;28;20246;-69
2022/12/12 10:45:08;;;;;;;16.48;10.93;;;;;;;14.26;32.46;101311.28;6214527;28;20240;-68
2022/12/12 10:48:31;;;;;;;17.77;12.27;;;;;;;15.66;30.57;101301.63;6225896;28;20841;-69
2022/12/12 10:51:54;;;;;;;17.85;11.18;;;;;;;14.56;31.89;101305.56;6214062;28;20224;-70
2022/12/12 10:55:19;;;;;;;14.43;12.25;;;;;;;13.55;33.02;101299.22;6213740;28;20229;-70
2022/12/12 10:58:42;;;;;;;13.40;10.07;;;;;;;14.83;31.36;101291.16;6228198;28;20545;-69
2022/12/12 11:02:22;;;;;;;15.05;11.63;;;;;;;14.66;31.40;101298.25;6214085;28;20260;-69
2022/12/12 11:05:45;;;;;;;12.05;10.70;;;;;;;14.13;32.06;101287.19;6460164;23;22554;-69
2022/12/12 11:09:09;;;;;;;12.70;11.32;;;;;;;15.73;30.37;101283.63;6209335;28;20527;-69
2022/12/12 11:12:34;;;;;;;12.00;10.77;;;;;;;15.36;30.51;101288.41;6207189;28;20571;-69
2022/12/12 11:15:58;;;;;;;14.68;11.80;;;;;;;15.08;30.47;101285.78;6202781;28;20261;-68
2022/12/12 11:19:24;;;;;;;19.38;15.05;;;;;;;14.90;31.02;101287.66;6206459;28;20232;-70
2022/12/12 11:22:50;;;;;;;19.65;15.25;;;;;;;15.23;30.27;101282.56;6223527;28;20233;-70
2022/12/12 11:26:13;;;;;;;13.73;11.27;;;;;;;15.03;31.80;101284.56;6217584;28;20251;-69
2022/12/12 11:29:41;;;;;;;13.82;10.65;;;;;;;14.61;31.93;101288.84;6215757;28;20240;-69
2022/12/12 11:33:05;;;;;;;14.90;11.45;;;;;;;14.51;31.88;101285.34;6228158;28;20419;-70
2022/12/12 11:36:32;;;;;;;11.25;9.77;;;;;;;14.81;31.75;101283.13;6211975;28;20625;-68
2022/12/12 11:39:56;;;;;;;10.00;9.05;;;;;;;15.51;30.79;101281.44;6217153;28;20224;-69
2022/12/12 11:43:24;;;;;;;10.93;8.90;;;;;;;15.66;31.08;101286.16;6224531;28;20233;-69
2022/12/12 11:46:45;;;;;;;10.65;9.38;;;;;;;14.71;32.01;101284.19;6208252;28;20603;-70
2022/12/12 11:50:18;;;;;;;14.27;9.90;;;;;;;14.63;31.54;101270.53;6226247;28;20550;-70
2022/12/12 11:53:43;;;;;;;11.75;9.95;;;;;;;16.00;30.04;101269.88;6221687;28;20228;-70
2022/12/12 11:57:12;;;;;;;14.27;10.48;;;;;;;15.61;30.68;101269.47;6211349;28;20232;-71
2022/12/12 12:00:44;;;;;;;12.15;9.80;;;;;;;15.06;31.24;101279.66;6207671;28;20328;-69
2022/12/12 12:04:23;;;;;;;14.93;11.13;;;;;;;16.33;29.47;101276.34;6212294;28;20220;-68
2022/12/12 12:08:01;;;;;;;13.50;10.57;;;;;;;14.69;31.10;101278.06;6214324;28;20241;-69
2022/12/12 12:11:33;;;;;;;12.88;10.70;;;;;;;14.90;31.32;101275.94;6200247;28;20258;-70
2022/12/12 12:15:15;;;;;;;13.07;10.55;;;;;;;14.01;32.23;101277.56;6197036;28;20229;-70
2022/12/12 12:18:51;;;;;;;12.88;10.50;;;;;;;13.02;33.55;101273.53;6218843;28;20233;-71
2022/12/12 12:22:23;;;;;;;11.63;9.55;;;;;;;12.62;34.51;101274.50;6210161;28;20233;-69
2022/12/12 12:25:53;;;;;;;12.30;9.67;;;;;;;11.57;36.29;101276.75;6201823;28;20237;-69
2022/12/12 12:29:40;;;;;;;15.47;10.73;;;;;;;10.27;38.91;101270.75;6203038;28;20229;-70
2022/12/12 12:33:27;;;;;;;12.20;10.77;;;;;;;9.84;40.44;101273.34;6210113;28;20229;-73
2022/12/12 12:37:04;;;;;;;16.33;10.80;;;;;;;9.31;42.63;101266.75;6201080;28;20249;-70
2022/12/12 12:40:37;;;;;;;14.13;10.10;;;;;;;8.63;43.55;101266.63;6208459;28;20248;-71
2022/12/12 12:44:13;;;;;;;15.37;11.03;;;;;;;8.10;45.07;101272.34;6202673;28;20240;-73
2022/12/12 12:47:41;;;;;;;14.50;10.27;;;;;;;7.95;45.61;101255.50;6205034;28;20233;-72
2022/12/12 12:51:11;;;;;;;15.77;10.67;;;;;;;8.57;43.66;101253.63;6205031;28;20225;-69
2022/12/12 12:54:36;;;;;;;16.97;10.43;;;;;;;9.11;42.74;101259.38;6212410;28;20220;-72
2022/12/12 12:58:01;;;;;;;12.23;8.90;;;;;;;9.50;41.05;101256.28;6206517;28;21571;-71
2022/12/12 13:01:26;;;;;;;16.20;8.87;;;;;;;9.46;40.70;101260.19;6201930;28;21104;-71
2022/12/12 13:04:54;;;;;;;15.07;10.17;;;;;;;9.26;42.35;101262.72;6212401;28;20241;-72
2022/12/12 13:08:24;;;;;;;14.43;9.80;;;;;;;8.05;43.66;101267.31;6210630;28;20238;-71
2022/12/12 13:11:49;;;;;;;10.67;9.60;;;;;;;7.69;44.84;101259.22;6192154;28;20611;-70
2022/12/12 13:15:20;;;;;;;11.17;8.03;;;;;;;7.81;45.13;101260.16;6190385;28;20520;-70
2022/12/12 13:18:44;;;;;;;14.37;9.93;;;;;;;7.05;45.67;101265.47;6206372;28;20253;-69
2022/12/12 13:22:13;;;;;;;10.97;8.97;;;;;;;6.59;47.72;101266.88;6193382;28;20233;-71
2022/12/12 13:25:42;;;;;;;21.47;15.93;;;;;;;6.58;48.02;101264.28;6205480;28;20229;-72
2022/12/12 13:29:34;;;;;;;22.47;10.53;;;;;;;6.00;49.67;101272.53;6194659;28;20232;-70
2022/12/12 13:33:13;;;;;;;14.30;9.60;;;;;;;5.85;49.34;101279.72;6196045;28;20237;-71
2022/12/12 13:36:36;;;;;;;13.30;9.83;;;;;;;5.43;50.04;101277.00;6206585;28;20229;-72
2022/12/12 13:39:59;;;;;;;13.67;9.07;;;;;;;5.12;50.37;101279.81;6207486;28;20230;-70
2022/12/12 13:43:30;;;;;;;16.13;10.30;;;;;;;4.88;51.96;101288.31;6207815;28;20234;-71
2022/12/12 13:46:50;;;;;;;13.57;7.00;;;;;;;4.57;51.96;101290.19;6200036;28;20589;-70
2022/12/12 13:50:21;;;;;;;9.73;8.63;;;;;;;4.43;52.74;101293.66;6195729;28;20233;-71
2022/12/12 13:53:42;;;;;;;12.03;7.53;;;;;;;4.05;54.06;101282.47;6207440;28;20236;-71
2022/12/12 13:57:12;;;;;;;12.40;9.07;;;;;;;4.32;53.65;101288.06;6178833;28;20336;-70
2022/12/12 14:00:35;;;;;;;14.40;9.03;;;;;;;4.00;55.29;101283.66;6187817;28;20268;-73
2022/12/12 14:03:57;;;;;;;16.60;9.63;;;;;;;4.10;54.51;101284.88;6193291;28;20289;-71
2022/12/12 14:07:22;;;;;;;9.20;6.57;;;;;;;4.17;54.57;101283.59;6203720;28;20226;-70
2022/12/12 14:10:53;;;;;;;14.00;9.87;;;;;;;4.00;54.76;101287.16;6200187;28;20229;-69
2022/12/12 14:14:22;;;;;;;12.90;7.23;;;;;;;3.87;55.60;101285.28;6203373;28;20228;-70
2022/12/12 14:17:53;;;;;;;11.67;7.03;;;;;;;3.60;56.71;101290.31;6199505;28;20734;-70
2022/12/12 14:21:15;;;;;;;8.40;5.93;;;;;;;3.58;56.79;101291.31;6211413;28;21085;-69
2022/12/12 14:24:58;;;;;;;12.53;7.60;;;;;;;3.56;57.00;101295.88;6200105;28;20251;-69
2022/12/12 14:28:21;;;;;;;8.77;6.10;;;;;;;3.54;57.00;101295.97;6199361;28;20249;-71
2022/12/12 14:31:52;;;;;;;8.53;6.63;;;;;;;3.34;58.01;101305.94;6197692;28;20315;-71
2022/12/12 14:35:28;;;;;;;11.67;8.27;;;;;;;3.42;58.25;101301.91;6204683;28;20237;-69
2022/12/12 14:39:01;;;;;;;17.23;8.07;;;;;;;3.15;59.64;101304.22;6203141;28;20229;-69
2022/12/12 14:42:32;;;;;;;24.97;15.57;;;;;;;3.39;59.18;101294.09;6198038;28;20453;-70
2022/12/12 14:45:55;;;;;;;33.17;24.17;;;;;;;3.36;59.83;101304.06;6203402;28;20237;-69
2022/12/12 14:49:18;;;;;;;29.87;20.83;;;;;;;3.13;60.76;101297.25;6203673;28;20490;-70
2022/12/12 14:52:40;;;;;;;57.03;37.33;;;;;;;2.92;61.92;101307.19;6195000;28;20226;-71
2022/12/12 14:56:04;;;;;;;42.00;27.30;;;;;;;2.88;62.19;101302.13;6205495;28;20312;-70
2022/12/12 14:59:28;;;;;;;48.43;29.73;;;;;;;2.87;62.68;101301.25;6190834;28;20233;-70
2022/12/12 15:02:51;;;;;;;45.43;26.17;;;;;;;2.92;63.92;101301.88;6193426;28;20232;-70
2022/12/12 15:06:20;;;;;;;60.27;37.57;;;;;;;2.81;64.65;101303.34;6205980;28;20613;-72
2022/12/12 15:09:47;;;;;;;46.73;28.43;;;;;;;3.05;62.95;101308.31;6186012;28;20232;-70
2022/12/12 15:13:15;;;;;;;42.30;26.63;;;;;;;2.91;62.77;101301.94;6198628;28;20327;-72
2022/12/12 15:16:42;;;;;;;47.30;32.97;;;;;;;2.72;63.53;101307.34;6206096;28;20545;-72
2022/12/12 15:20:05;;;;;;;29.63;20.57;;;;;;;2.55;64.24;101312.63;6210825;28;20320;-72
2022/12/12 15:23:26;;;;;;;25.37;16.13;;;;;;;2.64;63.74;101305.97;6211374;28;20613;-72
2022/12/12 15:26:50;;;;;;;32.10;24.13;;;;;;;2.55;64.26;101311.75;6210237;28;20249;-73
2022/12/12 15:30:30;;;;;;;32.23;22.23;;;;;;;2.44;64.42;101307.81;6210112;28;20315;-72
2022/12/12 15:33:50;;;;;;;20.80;13.93;;;;;;;2.30;64.93;101304.09;6209680;28;20229;-70
2022/12/12 15:37:20;;;;;;;20.13;11.60;;;;;;;2.27;64.87;101310.41;6208294;28;20634;-71
2022/12/12 15:40:43;;;;;;;14.30;10.50;;;;;;;1.96;67.18;101309.31;6201636;28;20249;-72
2022/12/12 15:44:06;;;;;;;21.80;13.57;;;;;;;1.95;67.84;101304.91;6200674;28;20237;-72
2022/12/12 15:47:28;;;;;;;32.13;21.50;;;;;;;1.86;67.43;101321.25;6204336;28;20318;-72
2022/12/12 15:50:55;;;;;;;53.17;31.20;;;;;;;1.80;67.90;101333.06;6207236;28;20311;-73
2022/12/12 15:54:16;;;;;;;52.40;32.17;;;;;;;1.85;67.95;101336.38;6197109;28;20507;-71